createdAt,value
2018-12-04T00:02:09.194Z,26.93
2018-12-04T00:04:47.278Z,27.00
2018-12-04T00:07:21.334Z,26.60
2018-12-04T00:09:55.407Z,26.40
2018-12-04T00:12:29.467Z,26.77
2018-12-04T00:15:03.778Z,26.70
2018-12-04T00:17:37.818Z,26.97
2018-12-04T00:20:11.992Z,26.63
2018-12-04T00:22:46.036Z,26.70
2018-12-04T00:25:20.106Z,26.90
2018-12-04T00:27:54.194Z,26.70
2018-12-04T00:30:28.245Z,26.40
2018-12-04T00:33:02.370Z,27.20
2018-12-04T00:35:36.436Z,26.30
2018-12-04T00:38:10.482Z,26.67
2018-12-04T00:40:44.662Z,26.40
2018-12-04T00:43:18.709Z,26.73
2018-12-04T00:45:52.781Z,26.40
2018-12-04T00:48:27.926Z,26.40
2018-12-04T00:51:02.359Z,26.93
2018-12-04T00:53:36.411Z,27.07
2018-12-04T00:56:10.577Z,26.87
2018-12-04T00:58:44.618Z,27.43
2018-12-04T01:01:18.785Z,26.70
2018-12-04T01:03:52.826Z,26.93
2018-12-04T01:06:26.890Z,27.17
2018-12-04T01:09:01.413Z,26.70
2018-12-04T01:11:36.671Z,26.83
2018-12-04T01:14:10.721Z,26.77
2018-12-04T01:16:44.790Z,26.83
2018-12-04T01:19:18.921Z,27.40
2018-12-04T01:21:52.990Z,26.87
2018-12-04T01:24:27.095Z,27.27
2018-12-04T01:27:01.407Z,27.13
2018-12-04T01:29:35.445Z,26.90
2018-12-04T01:32:09.525Z,27.10
2018-12-04T01:34:43.597Z,26.27
2018-12-04T01:37:17.655Z,26.70
2018-12-04T01:39:51.732Z,26.50
2018-12-04T01:42:25.798Z,26.43
2018-12-04T01:45:00.265Z,26.50
2018-12-04T01:47:34.652Z,26.40
2018-12-04T01:50:09.628Z,26.80
2018-12-04T01:52:44.222Z,27.07
2018-12-04T01:55:23.178Z,26.63
2018-12-04T01:57:57.241Z,27.00
2018-12-04T02:00:31.305Z,27.40
2018-12-04T02:03:05.373Z,26.60
2018-12-04T02:05:39.441Z,26.87
2018-12-04T02:08:14.517Z,27.13
2018-12-04T02:10:48.637Z,27.03
2018-12-04T02:13:22.717Z,26.77
2018-12-04T02:15:56.758Z,27.17
2018-12-04T02:18:30.901Z,27.10
2018-12-04T02:21:05.360Z,26.77
2018-12-04T02:23:39.561Z,26.87
2018-12-04T02:26:13.830Z,26.97
2018-12-04T02:28:47.987Z,26.80
2018-12-04T02:31:22.060Z,27.50
2018-12-04T02:33:57.100Z,26.57
2018-12-04T02:36:31.153Z,26.33
2018-12-04T02:39:07.662Z,27.00
2018-12-04T02:41:41.718Z,26.87
2018-12-04T02:44:16.028Z,27.03
2018-12-04T02:46:56.535Z,26.80
2018-12-04T02:49:31.773Z,27.10
2018-12-04T02:52:05.842Z,26.83
2018-12-04T02:54:39.888Z,26.63
2018-12-04T02:57:13.946Z,27.20
2018-12-04T02:59:48.029Z,26.80
2018-12-04T03:02:22.098Z,26.40
2018-12-04T03:04:56.151Z,26.63
2018-12-04T03:07:30.314Z,26.60
2018-12-04T03:10:05.235Z,26.60
2018-12-04T03:12:39.307Z,26.73
2018-12-04T03:15:13.495Z,26.43
2018-12-04T03:17:47.539Z,26.27
2018-12-04T03:20:21.717Z,26.53
2018-12-04T03:22:55.786Z,26.53
2018-12-04T03:25:29.864Z,27.10
2018-12-04T03:28:04.030Z,27.27
2018-12-04T03:30:40.130Z,27.37
2018-12-04T03:33:24.396Z,26.93
2018-12-04T03:35:58.450Z,26.47
2018-12-04T03:38:32.530Z,26.33
2018-12-04T03:41:06.579Z,26.53
2018-12-04T03:43:40.614Z,26.77
2018-12-04T03:46:15.743Z,26.43
2018-12-04T03:48:49.777Z,26.47
2018-12-04T03:51:23.854Z,27.23
2018-12-04T03:53:57.900Z,26.80
2018-12-04T03:56:31.957Z,26.70
2018-12-04T03:59:06.003Z,27.03
2018-12-04T04:01:40.119Z,26.77
2018-12-04T04:04:14.155Z,26.43
2018-12-04T04:06:48.335Z,26.43
2018-12-04T04:09:23.459Z,26.30
2018-12-04T04:11:57.519Z,26.37
2018-12-04T04:14:31.566Z,26.50
2018-12-04T04:17:06.159Z,26.60
2018-12-04T04:19:40.202Z,26.70
2018-12-04T04:22:14.258Z,28.10
2018-12-04T04:24:48.566Z,27.40
2018-12-04T04:27:22.618Z,27.17
2018-12-04T04:29:56.858Z,27.03
2018-12-04T04:32:30.936Z,26.63
2018-12-04T04:35:06.268Z,26.83
2018-12-04T04:37:40.343Z,26.40
2018-12-04T04:40:14.378Z,26.43
2018-12-04T04:42:48.443Z,27.13
2018-12-04T04:45:22.706Z,26.93
2018-12-04T04:47:56.747Z,27.07
2018-12-04T04:50:30.785Z,27.07
2018-12-04T04:53:04.851Z,27.53
2018-12-04T04:55:38.885Z,27.00
2018-12-04T04:58:12.939Z,29.07
2018-12-04T05:00:46.978Z,29.23
2018-12-04T05:03:21.063Z,29.23
2018-12-04T05:05:55.111Z,27.70
2018-12-04T05:08:29.198Z,27.03
2018-12-04T05:11:03.240Z,26.67
2018-12-04T05:13:37.299Z,26.77
2018-12-04T05:16:11.339Z,26.77
2018-12-04T05:18:45.391Z,27.13
2018-12-04T05:21:19.457Z,27.50
2018-12-04T05:23:53.505Z,27.17
2018-12-04T05:26:27.541Z,27.97
2018-12-04T05:29:01.610Z,28.17
2018-12-04T05:31:35.802Z,27.70
2018-12-04T05:34:09.974Z,28.43
2018-12-04T05:36:44.015Z,27.53
2018-12-04T05:39:18.077Z,27.70
2018-12-04T05:41:52.123Z,27.20
2018-12-04T05:44:26.176Z,27.60
2018-12-04T05:47:00.198Z,27.50
2018-12-04T05:49:34.538Z,27.20
2018-12-04T05:52:08.603Z,28.37
2018-12-04T05:54:42.656Z,27.17
2018-12-04T05:57:16.703Z,27.77
2018-12-04T05:59:50.775Z,27.23
2018-12-04T06:02:24.837Z,27.40
2018-12-04T06:04:58.923Z,26.60
2018-12-04T06:07:32.947Z,26.67
2018-12-04T06:10:07.479Z,26.40
2018-12-04T06:12:41.588Z,26.17
2018-12-04T06:15:15.640Z,26.53
2018-12-04T06:17:50.822Z,26.27
2018-12-04T06:20:26.153Z,26.83
2018-12-04T06:23:00.213Z,26.73
2018-12-04T06:25:36.110Z,26.83
2018-12-04T06:28:10.145Z,27.00
2018-12-04T06:30:44.202Z,26.47
2018-12-04T06:33:18.274Z,27.63
2018-12-04T06:35:52.309Z,26.53
2018-12-04T06:38:26.374Z,27.10
2018-12-04T06:41:00.411Z,26.23
2018-12-04T06:43:34.522Z,26.43
2018-12-04T06:46:08.563Z,26.40
2018-12-04T06:48:42.629Z,26.63
2018-12-04T06:51:16.679Z,26.80
2018-12-04T06:53:50.730Z,27.00
2018-12-04T06:56:24.796Z,26.43
2018-12-04T06:58:58.867Z,26.87
2018-12-04T07:01:32.950Z,27.07
2018-12-04T07:04:07.010Z,26.33
2018-12-04T07:06:41.173Z,26.53
2018-12-04T07:09:15.233Z,26.77
2018-12-04T07:11:49.267Z,26.63
2018-12-04T07:14:23.320Z,26.60
2018-12-04T07:16:57.351Z,26.47
2018-12-04T07:19:31.407Z,26.50
2018-12-04T07:22:05.453Z,26.70
2018-12-04T07:24:40.406Z,26.90
2018-12-04T07:27:14.442Z,26.63
2018-12-04T07:29:48.586Z,28.40
2018-12-04T07:32:23.010Z,28.90
2018-12-04T07:34:57.072Z,26.63
2018-12-04T07:37:31.096Z,26.10
2018-12-04T07:40:06.926Z,26.47
2018-12-04T07:42:40.960Z,26.67
2018-12-04T07:45:15.027Z,26.97
2018-12-04T07:47:49.053Z,27.57
2018-12-04T07:50:23.118Z,27.83
2018-12-04T07:52:57.191Z,27.00
2018-12-04T07:55:31.262Z,26.77
2018-12-04T07:58:05.321Z,26.90
2018-12-04T08:00:39.371Z,26.47
2018-12-04T08:03:13.435Z,26.80
2018-12-04T08:05:47.491Z,26.27
2018-12-04T08:08:21.551Z,26.50
2018-12-04T08:10:55.614Z,26.63
2018-12-04T08:13:29.674Z,26.43
2018-12-04T08:16:03.825Z,26.97
2018-12-04T08:18:37.922Z,26.63
2018-12-04T08:21:11.988Z,26.83
2018-12-04T08:23:46.094Z,26.23
2018-12-04T08:26:20.131Z,26.63
2018-12-04T08:28:54.194Z,27.13
2018-12-04T08:31:28.254Z,26.40
2018-12-04T08:34:02.315Z,26.67
2018-12-04T08:36:36.355Z,26.37
2018-12-04T08:39:13.032Z,26.67
2018-12-04T08:41:46.450Z,26.77
2018-12-04T08:44:20.513Z,26.97
2018-12-04T08:46:54.554Z,26.70
2018-12-04T08:49:28.627Z,26.70
2018-12-04T08:52:03.298Z,27.17
2018-12-04T08:54:37.355Z,26.60
2018-12-04T08:57:11.390Z,27.17
2018-12-04T08:59:45.447Z,26.93
2018-12-04T09:02:19.490Z,26.97
2018-12-04T09:04:53.545Z,26.60
2018-12-04T09:07:27.575Z,26.63
2018-12-04T09:10:01.643Z,26.60
2018-12-04T09:12:35.790Z,26.53
2018-12-04T09:15:09.865Z,26.57
2018-12-04T09:17:44.913Z,26.57
2018-12-04T09:20:19.015Z,26.83
2018-12-04T09:22:53.066Z,26.53
2018-12-04T09:25:27.131Z,26.60
2018-12-04T09:28:01.488Z,26.87
2018-12-04T09:30:35.575Z,26.63
2018-12-04T09:33:09.621Z,26.67
2018-12-04T09:35:43.878Z,27.10
2018-12-04T09:38:17.919Z,26.63
2018-12-04T09:40:51.987Z,26.93
2018-12-04T09:43:26.094Z,26.93
2018-12-04T09:46:00.160Z,27.37
2018-12-04T09:48:34.515Z,27.03
2018-12-04T09:51:08.557Z,27.60
2018-12-04T09:53:42.634Z,27.90
2018-12-04T09:56:16.686Z,27.87
2018-12-04T09:58:50.751Z,28.03
2018-12-04T10:01:24.802Z,28.20
2018-12-04T10:03:59.208Z,27.43
2018-12-04T10:06:33.252Z,27.33
2018-12-04T10:09:08.888Z,27.43
2018-12-04T10:11:42.938Z,27.50
2018-12-04T10:14:17.014Z,27.67
2018-12-04T10:16:51.059Z,27.40
2018-12-04T10:19:25.234Z,28.40
2018-12-04T10:22:00.372Z,29.83
2018-12-04T10:24:34.453Z,29.00
2018-12-04T10:27:08.511Z,28.70
2018-12-04T10:29:42.787Z,29.07
2018-12-04T10:32:16.994Z,28.63
2018-12-04T10:34:51.062Z,28.13
2018-12-04T10:37:25.106Z,27.80
2018-12-04T10:39:59.178Z,28.37
2018-12-04T10:42:35.325Z,27.30
2018-12-04T10:45:09.384Z,27.70
2018-12-04T10:47:43.867Z,27.53
2018-12-04T10:50:17.914Z,27.83
2018-12-04T10:52:51.942Z,27.50
2018-12-04T10:55:26.001Z,27.80
2018-12-04T10:58:00.135Z,28.17
2018-12-04T11:00:38.539Z,27.70
2018-12-04T11:03:13.272Z,28.13
2018-12-04T11:05:49.471Z,27.23
2018-12-04T11:08:23.512Z,27.10
2018-12-04T11:10:57.570Z,27.33
2018-12-04T11:13:31.607Z,27.20
2018-12-04T11:16:07.698Z,26.70
2018-12-04T11:18:41.729Z,27.17
2018-12-04T11:21:16.098Z,27.53
2018-12-04T11:23:50.335Z,27.63
2018-12-04T11:26:24.401Z,27.37
2018-12-04T11:28:58.434Z,27.53
2018-12-04T11:31:32.634Z,27.60
2018-12-04T11:34:06.679Z,27.43
2018-12-04T11:36:40.730Z,27.10
2018-12-04T11:39:14.769Z,27.10
2018-12-04T11:41:48.836Z,28.27
2018-12-04T11:44:24.117Z,27.77
2018-12-04T11:46:58.380Z,27.87
2018-12-04T11:49:32.439Z,27.93
2018-12-04T11:52:06.493Z,28.07
2018-12-04T11:54:40.559Z,28.03
2018-12-04T11:57:15.854Z,27.73
2018-12-04T11:59:49.902Z,28.33
2018-12-04T12:02:23.973Z,28.37
2018-12-04T12:04:58.011Z,28.83
2018-12-04T12:07:34.059Z,28.80
2018-12-04T12:10:08.254Z,28.60
2018-12-04T12:12:42.304Z,27.77
2018-12-04T12:15:18.304Z,28.13
2018-12-04T12:17:52.402Z,27.40
2018-12-04T12:20:26.466Z,27.70
2018-12-04T12:23:00.505Z,28.70
2018-12-04T12:25:34.580Z,28.40
2018-12-04T12:28:13.798Z,28.10
2018-12-04T12:30:47.884Z,27.60
2018-12-04T12:33:21.915Z,28.07
2018-12-04T12:35:55.982Z,29.33
2018-12-04T12:38:30.126Z,28.23
2018-12-04T12:41:04.326Z,27.87
2018-12-04T12:43:38.370Z,28.40
2018-12-04T12:46:12.457Z,28.50
2018-12-04T12:48:46.580Z,28.23
2018-12-04T12:51:20.859Z,28.67
2018-12-04T12:53:54.942Z,28.07
2018-12-04T12:56:29.014Z,28.30
2018-12-04T12:59:03.709Z,28.63
2018-12-04T13:01:39.862Z,28.57
2018-12-04T13:04:13.901Z,27.90
2018-12-04T13:06:47.974Z,28.10
2018-12-04T13:09:22.017Z,28.00
2018-12-04T13:11:56.086Z,28.43
2018-12-04T13:14:30.121Z,27.67
2018-12-04T13:17:04.411Z,28.73
2018-12-04T13:19:39.542Z,28.47
2018-12-04T13:22:13.609Z,28.70
2018-12-04T13:24:47.674Z,28.37
2018-12-04T13:27:21.842Z,28.40
2018-12-04T13:29:55.900Z,27.87
2018-12-04T13:32:30.032Z,28.60
2018-12-04T13:35:04.716Z,28.23
2018-12-04T13:37:38.799Z,28.53
2018-12-04T13:40:13.108Z,28.47
2018-12-04T13:42:47.215Z,28.13
2018-12-04T13:45:21.595Z,28.47
2018-12-04T13:47:55.646Z,29.43
2018-12-04T13:50:30.707Z,29.70
2018-12-04T13:53:04.808Z,29.50
2018-12-04T13:55:38.932Z,29.20
2018-12-04T13:58:13.031Z,28.40
2018-12-04T14:00:47.300Z,28.53
2018-12-04T14:03:21.399Z,28.30
2018-12-04T14:05:55.551Z,28.07
2018-12-04T14:08:29.617Z,28.23
2018-12-04T14:11:04.024Z,28.33
2018-12-04T14:13:38.153Z,28.47
2018-12-04T14:16:12.209Z,28.70
2018-12-04T14:18:47.772Z,28.83
2018-12-04T14:21:21.894Z,29.60
2018-12-04T14:23:55.936Z,31.27
2018-12-04T14:26:30.026Z,32.73
2018-12-04T14:29:04.308Z,33.17
2018-12-04T14:31:38.399Z,32.10
2018-12-04T14:34:12.447Z,31.47
2018-12-04T14:36:46.498Z,31.83
2018-12-04T14:39:20.547Z,32.33
2018-12-04T14:41:54.612Z,31.47
2018-12-04T14:44:29.696Z,29.43
2018-12-04T14:47:03.791Z,28.97
2018-12-04T14:49:37.856Z,29.57
2018-12-04T14:52:12.162Z,29.27
2018-12-04T14:54:46.229Z,31.73
2018-12-04T14:57:20.353Z,30.50
2018-12-04T14:59:54.503Z,31.20
2018-12-04T15:02:28.702Z,30.40
2018-12-04T15:05:02.945Z,29.73
2018-12-04T15:07:39.710Z,29.50
2018-12-04T15:10:14.036Z,29.87
2018-12-04T15:12:48.229Z,29.03
2018-12-04T15:15:24.772Z,30.83
2018-12-04T15:17:59.043Z,29.30
2018-12-04T15:20:33.289Z,29.67
2018-12-04T15:23:07.484Z,28.73
2018-12-04T15:25:41.767Z,28.53
2018-12-04T15:28:15.911Z,28.90
2018-12-04T15:30:50.041Z,28.20
2018-12-04T15:33:24.150Z,27.97
2018-12-04T15:35:58.273Z,27.53
2018-12-04T15:38:32.323Z,27.60
2018-12-04T15:41:06.208Z,27.80
2018-12-04T15:43:40.513Z,27.97
2018-12-04T15:46:14.622Z,29.43
2018-12-04T15:48:48.790Z,28.37
2018-12-04T15:51:22.866Z,27.90
2018-12-04T15:53:56.933Z,27.83
2018-12-04T15:56:34.903Z,27.73
2018-12-04T15:59:08.961Z,28.50
2018-12-04T16:01:43.012Z,28.93
2018-12-04T16:04:18.150Z,28.47
2018-12-04T16:06:52.342Z,29.43
2018-12-04T16:09:26.397Z,29.87
2018-12-04T16:12:00.843Z,28.50
2018-12-04T16:14:35.030Z,28.07
2018-12-04T16:19:56.548Z,29.67
2018-12-04T16:22:42.303Z,28.97
2018-12-04T16:25:16.577Z,29.03
2018-12-04T16:27:57.749Z,29.10
2018-12-04T16:30:31.996Z,29.20
2018-12-04T16:33:06.095Z,28.77
2018-12-04T16:35:40.174Z,28.50
2018-12-04T16:38:15.457Z,28.50
2018-12-04T16:40:49.675Z,28.57
2018-12-04T16:43:23.759Z,29.10
2018-12-04T16:45:58.086Z,29.90
2018-12-04T16:48:32.163Z,29.47
2018-12-04T16:51:06.625Z,29.30
2018-12-04T16:53:40.747Z,28.60
2018-12-04T16:56:14.800Z,28.97
2018-12-04T16:58:48.973Z,29.10
2018-12-04T17:01:24.199Z,28.90
2018-12-04T17:03:58.275Z,28.87
2018-12-04T17:06:32.323Z,28.73
2018-12-04T17:09:11.762Z,28.50
2018-12-04T17:11:46.883Z,29.90
2018-12-04T17:14:20.946Z,29.57
2018-12-04T17:16:55.098Z,28.47
2018-12-04T17:19:30.266Z,29.00
2018-12-04T17:22:04.462Z,28.77
2018-12-04T17:24:38.543Z,29.47
2018-12-04T17:27:12.702Z,28.63
2018-12-04T17:29:46.804Z,28.43
2018-12-04T17:32:24.106Z,29.50
2018-12-04T17:35:00.616Z,32.87
2018-12-04T17:37:34.842Z,33.23
2018-12-04T17:40:08.961Z,35.67
2018-12-04T17:42:43.086Z,32.20
2018-12-04T17:45:18.168Z,29.60
2018-12-04T17:47:52.359Z,28.57
2018-12-04T17:50:26.453Z,28.57
2018-12-04T17:53:03.033Z,28.73
2018-12-04T17:55:37.480Z,28.60
2018-12-04T17:58:13.665Z,29.13
2018-12-04T18:00:48.894Z,28.83
2018-12-04T18:03:22.966Z,30.30
2018-12-04T18:05:58.214Z,30.43
2018-12-04T18:08:32.279Z,30.50
2018-12-04T18:11:08.604Z,29.90
2018-12-04T18:13:42.776Z,29.53
2018-12-04T18:16:16.858Z,28.37
2018-12-04T18:18:51.917Z,28.83
2018-12-04T18:21:26.088Z,29.73
2018-12-04T18:24:00.219Z,31.23
2018-12-04T18:26:35.266Z,33.27
2018-12-04T18:29:09.415Z,36.90
2018-12-04T18:31:43.718Z,33.90
2018-12-04T18:34:17.939Z,31.93
2018-12-04T18:36:51.990Z,31.87
2018-12-04T18:39:26.208Z,29.90
2018-12-04T18:42:00.310Z,28.50
2018-12-04T18:44:34.668Z,29.80
2018-12-04T18:47:08.920Z,29.40
2018-12-04T18:49:42.990Z,30.60
2018-12-04T18:52:18.055Z,30.53
2018-12-04T18:54:52.129Z,29.90
2018-12-04T18:57:26.194Z,30.03
2018-12-04T19:00:00.602Z,30.63
2018-12-04T19:02:34.646Z,29.80
2018-12-04T19:05:08.856Z,29.63
2018-12-04T19:07:43.085Z,29.30
2018-12-04T19:10:17.254Z,29.03
2018-12-04T19:12:52.495Z,28.97
2018-12-04T19:15:26.762Z,31.33
2018-12-04T19:18:02.350Z,32.47
2018-12-04T19:20:36.921Z,30.07
2018-12-04T19:23:10.982Z,29.80
2018-12-04T19:25:45.267Z,28.90
2018-12-04T19:28:19.453Z,29.00
2018-12-04T19:30:53.534Z,28.30
2018-12-04T19:33:28.857Z,28.30
2018-12-04T19:36:03.282Z,28.90
2018-12-04T19:38:37.395Z,29.80
2018-12-04T19:41:11.623Z,29.43
2018-12-04T19:43:46.847Z,30.13
2018-12-04T19:46:21.951Z,37.03
2018-12-04T19:48:56.015Z,45.57
2018-12-04T19:51:30.533Z,38.70
2018-12-04T19:54:04.882Z,38.37
2018-12-04T19:56:39.122Z,43.03
2018-12-04T19:59:13.210Z,40.40
2018-12-04T20:01:47.353Z,35.97
2018-12-04T20:04:21.459Z,30.70
2018-12-04T20:06:55.621Z,30.60
2018-12-04T20:09:29.800Z,30.87
2018-12-04T20:12:05.162Z,31.93
2018-12-04T20:14:39.262Z,30.93
2018-12-04T20:17:13.340Z,31.33
2018-12-04T20:19:47.402Z,31.37
2018-12-04T20:22:25.504Z,32.43
2018-12-04T20:24:59.708Z,31.17
2018-12-04T20:27:33.794Z,31.50
2018-12-04T20:30:08.822Z,30.43
2018-12-04T20:32:42.888Z,29.00
2018-12-04T20:35:17.051Z,29.53
2018-12-04T20:37:51.169Z,31.60
2018-12-04T20:40:31.371Z,31.40
2018-12-04T20:43:01.745Z,30.90
2018-12-04T20:45:35.864Z,29.70
2018-12-04T20:48:10.144Z,30.47
2018-12-04T20:50:44.459Z,39.13
2018-12-04T20:53:18.561Z,35.83
2018-12-04T20:55:52.602Z,31.57
2018-12-04T20:58:26.790Z,30.53
2018-12-04T21:01:00.928Z,29.93
2018-12-04T21:03:35.191Z,29.80
2018-12-04T21:06:09.657Z,29.20
2018-12-04T21:08:43.667Z,28.87
2018-12-04T21:11:17.833Z,29.20
2018-12-04T21:13:52.004Z,29.20
2018-12-04T21:16:26.039Z,27.90
2018-12-04T21:19:00.074Z,28.90
2018-12-04T21:21:34.598Z,28.87
2018-12-04T21:24:09.160Z,28.50
2018-12-04T21:26:43.222Z,28.03
2018-12-04T21:29:22.591Z,28.13
2018-12-04T21:32:02.137Z,28.50
2018-12-04T21:34:48.238Z,27.77
2018-12-04T21:37:23.091Z,27.47
2018-12-04T21:42:09.846Z,27.23
2018-12-04T21:44:49.047Z,27.27
2018-12-04T21:47:28.467Z,27.60
2018-12-04T21:50:03.239Z,28.07
2018-12-04T21:52:37.308Z,29.43
2018-12-04T21:55:11.355Z,27.83
2018-12-04T21:57:45.406Z,27.57
2018-12-04T22:00:19.522Z,27.87
2018-12-04T22:02:53.558Z,27.63
2018-12-04T22:05:27.620Z,27.73
2018-12-04T22:08:03.050Z,27.77
2018-12-04T22:10:37.209Z,27.93
2018-12-04T22:13:11.250Z,27.57
2018-12-04T22:15:45.409Z,28.23
2018-12-04T22:18:19.555Z,28.00
2018-12-04T22:20:53.666Z,28.70
2018-12-04T22:23:27.823Z,28.47
2018-12-04T22:26:02.437Z,28.20
2018-12-04T22:28:36.480Z,27.70
2018-12-04T22:31:10.575Z,27.70
2018-12-04T22:33:44.765Z,27.30
2018-12-04T22:36:18.856Z,27.67
2018-12-04T22:38:52.924Z,27.80
2018-12-04T22:41:26.977Z,27.67
2018-12-04T22:44:01.655Z,28.43
2018-12-04T22:46:35.936Z,27.93
2018-12-04T22:49:10.778Z,28.20
2018-12-04T22:51:44.835Z,28.20
2018-12-04T22:54:19.975Z,28.57
2018-12-04T22:56:54.042Z,28.70
2018-12-04T22:59:28.095Z,29.20
2018-12-04T23:02:02.483Z,28.73
2018-12-04T23:04:36.643Z,28.30
2018-12-04T23:07:10.703Z,28.17
2018-12-04T23:09:44.755Z,28.00
2018-12-04T23:12:19.135Z,27.93
2018-12-04T23:14:53.228Z,27.57
2018-12-04T23:17:27.397Z,27.47
2018-12-04T23:20:01.456Z,28.63
2018-12-04T23:22:36.736Z,28.30
2018-12-04T23:25:10.777Z,28.37
2018-12-04T23:27:47.064Z,28.47
2018-12-04T23:30:21.171Z,28.87
2018-12-04T23:32:55.246Z,28.70
2018-12-04T23:35:29.276Z,28.10
2018-12-04T23:38:05.433Z,28.70
2018-12-04T23:40:39.490Z,29.07
2018-12-04T23:43:13.574Z,28.70
2018-12-04T23:45:47.619Z,28.07
2018-12-04T23:48:21.674Z,27.83
2018-12-04T23:50:56.803Z,27.93
2018-12-04T23:53:30.874Z,28.43
2018-12-04T23:56:05.158Z,28.33
2018-12-04T23:58:39.230Z,27.80
